Time;durP1;ratioP1;P1;durP2;ratioP2;P2;SDS_P1;SDS_P2;PMS_P1;PMS_P2;Temp;Humidity;BMP_temperature;BMP_pressure;BME280_temperature;BME280_humidity;BME280_pressure;Samples;Min_cycle;Max_cycle;Signal;HPM_P1;HPM_P2
2023/07/03 08:37:36;;;;;;;12.13;2.70;;;18.70;98.90;;;;;;4780995;30;20796;-82
2023/07/03 08:40:05;;;;;;;11.68;2.63;;;19.40;99.90;;;;;;4785172;29;20093;-81
2023/07/03 08:43:13;;;;;;;9.32;2.42;;;19.10;99.90;;;;;;4808226;29;20540;-82
2023/07/03 08:45:42;;;;;;;12.73;2.53;;;19.00;98.80;;;;;;4791063;29;20047;-83
2023/07/03 08:52:25;;;;;;;11.90;2.45;;;18.90;99.80;;;;;;4790648;29;20082;-81
2023/07/03 08:55:14;;;;;;;8.43;2.13;;;18.90;98.60;;;;;;4793290;29;20054;-82
2023/07/03 08:57:52;;;;;;;10.38;2.42;;;19.10;98.90;;;;;;4792245;29;20051;-83
2023/07/03 09:00:53;;;;;;;8.50;2.08;;;19.40;98.80;;;;;;4785463;29;20051;-82
2023/07/03 09:03:53;;;;;;;7.22;1.92;;;19.10;97.60;;;;;;4785249;29;20130;-83
2023/07/03 09:06:53;;;;;;;7.95;2.08;;;19.30;98.40;;;;;;4793557;29;20500;-83
2023/07/03 09:09:41;;;;;;;6.80;2.10;;;19.70;96.60;;;;;;4793268;29;20119;-84
2023/07/03 09:12:34;;;;;;;9.23;2.30;;;19.70;96.50;;;;;;4797085;29;20061;-83
2023/07/03 09:15:33;;;;;;;8.30;2.22;;;19.80;96.50;;;;;;4802989;29;20070;-84
2023/07/03 09:18:18;;;;;;;7.80;2.20;;;20.00;96.90;;;;;;4795721;29;20111;-81
2023/07/03 09:20:45;;;;;;;8.30;2.13;;;20.10;97.30;;;;;;4818694;29;20054;-82
2023/07/03 09:23:20;;;;;;;8.35;2.22;;;20.40;98.80;;;;;;4791593;29;20149;-83
2023/07/03 09:26:15;;;;;;;9.43;2.00;;;20.10;95.50;;;;;;4785934;30;20054;-82
2023/07/03 09:28:58;;;;;;;13.63;2.40;;;19.80;95.50;;;;;;4785181;30;20048;-83
2023/07/03 09:31:55;;;;;;;9.43;2.30;;;19.40;96.20;;;;;;4785805;29;20055;-84
2023/07/03 09:34:24;;;;;;;10.50;2.50;;;18.90;97.20;;;;;;4786063;29;20119;-81
2023/07/03 09:37:08;;;;;;;;;;;;;;;;;;;;;
2023/07/03 09:39:34;;;;;;;13.82;2.65;;;18.60;99.20;;;;;;4791483;29;20073;-81
2023/07/03 09:42:42;;;;;;;11.40;2.58;;;18.80;99.20;;;;;;4793793;29;20035;-81
2023/07/03 09:45:33;;;;;;;10.52;2.17;;;18.90;98.50;;;;;;4786949;29;20055;-81
2023/07/03 09:48:32;;;;;;;10.98;2.15;;;19.10;97.30;;;;;;4730672;30;20052;-81
2023/07/03 09:51:56;;;;;;;11.93;2.60;;;18.90;96.80;;;;;;4733342;30;20056;-82
2023/07/03 09:54:40;;;;;;;11.23;2.57;;;19.00;97.00;;;;;;4744495;30;20088;-81
2023/07/03 09:57:17;;;;;;;9.93;2.35;;;18.90;96.70;;;;;;4733215;30;20083;-81
2023/07/03 09:59:45;;;;;;;8.88;2.15;;;18.80;97.80;;;;;;4784866;29;20055;-82
2023/07/03 10:02:14;;;;;;;9.55;2.13;;;18.80;97.40;;;;;;4798815;29;20122;-81
2023/07/03 10:04:49;;;;;;;7.28;2.10;;;18.70;97.90;;;;;;4807059;29;20568;-81
2023/07/03 10:07:16;;;;;;;7.95;2.00;;;18.70;97.70;;;;;;4798476;29;20098;-81
2023/07/03 10:09:44;;;;;;;10.40;2.60;;;18.60;98.10;;;;;;4797787;29;20054;-80
2023/07/03 10:12:29;;;;;;;8.50;2.20;;;18.60;98.70;;;;;;4797748;29;20040;-83
2023/07/03 10:15:05;;;;;;;9.07;2.38;;;18.60;98.30;;;;;;4807517;29;20119;-81
2023/07/03 10:17:36;;;;;;;10.10;2.30;;;18.60;98.80;;;;;;4794588;29;20408;-82
2023/07/03 10:20:09;;;;;;;11.38;2.75;;;18.60;99.30;;;;;;4797503;29;20100;-81
2023/07/03 10:22:37;;;;;;;;;;;18.60;98.80;;;;;;4806962;29;20051;-81
2023/07/03 10:25:09;;;;;;;11.65;2.92;;;18.50;98.50;;;;;;4804885;29;20270;-81
2023/07/03 10:27:39;;;;;;;10.82;2.40;;;18.60;99.50;;;;;;4806638;29;20059;-81
2023/07/03 10:30:11;;;;;;;10.15;2.47;;;18.80;98.90;;;;;;4806641;29;20525;-80
2023/07/03 10:32:37;;;;;;;8.70;2.50;;;19.00;98.80;;;;;;4805874;29;20082;-81
2023/07/03 10:35:06;;;;;;;9.80;2.00;;;18.80;98.90;;;;;;4806411;29;20055;-81
2023/07/03 10:37:43;;;;;;;10.93;2.40;;;18.60;97.30;;;;;;4821896;29;20139;-81
2023/07/03 10:40:18;;;;;;;10.27;2.17;;;18.50;97.80;;;;;;4805570;29;20095;-81
2023/07/03 10:42:59;;;;;;;9.40;2.10;;;18.90;97.40;;;;;;4806392;29;20062;-82
2023/07/03 10:45:27;;;;;;;9.10;2.10;;;19.50;96.70;;;;;;4805898;29;20077;-82
2023/07/03 10:47:58;;;;;;;10.55;2.30;;;19.80;97.30;;;;;;4815842;29;20055;-85
2023/07/03 10:50:52;;;;;;;7.95;2.00;;;19.80;96.50;;;;;;4779666;30;20193;-84
2023/07/03 10:53:44;;;;;;;10.00;2.10;;;19.80;95.90;;;;;;4803823;29;20207;-83
2023/07/03 10:56:16;;;;;;;10.93;2.25;;;19.60;95.70;;;;;;4787334;30;20415;-82
2023/07/03 10:58:54;;;;;;;7.63;2.15;;;19.40;96.20;;;;;;4787612;30;20074;-83
2023/07/03 11:01:28;;;;;;;6.47;2.00;;;19.20;95.50;;;;;;4784736;29;20059;-82
2023/07/03 11:04:19;;;;;;;9.70;2.33;;;19.30;96.30;;;;;;4776980;30;20056;-84
2023/07/03 11:07:05;;;;;;;8.10;2.10;;;19.40;95.60;;;;;;4769257;30;20451;-83
2023/07/03 11:10:07;;;;;;;7.75;1.80;;;19.40;95.00;;;;;;4769438;30;20055;-83
2023/07/03 11:12:55;;;;;;;9.02;2.05;;;19.80;94.00;;;;;;4770359;30;20047;-83
2023/07/03 11:15:45;;;;;;;7.68;1.70;;;20.00;93.30;;;;;;4769840;30;20052;-83
2023/07/03 11:18:55;;;;;;;6.45;1.65;;;19.90;92.10;;;;;;4770047;30;20048;-83
2023/07/03 11:21:47;;;;;;;7.07;1.65;;;20.00;92.30;;;;;;4769963;30;20419;-84
2023/07/03 11:24:37;;;;;;;6.80;1.92;;;20.10;91.50;;;;;;4770245;30;20051;-83
2023/07/03 11:27:32;;;;;;;10.25;2.13;;;19.70;92.10;;;;;;4769683;30;20056;-85
2023/07/03 11:29:58;;;;;;;10.57;2.10;;;19.70;92.80;;;;;;4794332;29;20047;-84
2023/07/03 11:32:33;;;;;;;6.53;1.67;;;19.50;93.70;;;;;;4797327;29;20076;-82
2023/07/03 11:35:00;;;;;;;7.93;2.10;;;19.40;93.70;;;;;;4792423;29;20454;-83
2023/07/03 11:37:59;;;;;;;8.95;1.90;;;19.50;94.20;;;;;;4797958;29;20035;-83
2023/07/03 11:40:33;;;;;;;7.22;1.75;;;19.60;93.40;;;;;;4793999;29;20051;-84
2023/07/03 11:43:18;;;;;;;5.57;1.73;;;20.00;93.00;;;;;;4786490;30;20070;-83
2023/07/03 11:45:56;;;;;;;9.52;2.22;;;20.30;92.30;;;;;;4787419;29;20093;-85
2023/07/03 11:48:43;;;;;;;8.00;1.65;;;20.70;92.20;;;;;;4786701;29;20492;-84
2023/07/03 11:51:15;;;;;;;8.73;1.98;;;20.80;91.90;;;;;;4786903;30;20218;-84
2023/07/03 11:53:46;;;;;;;9.45;2.22;;;21.00;92.20;;;;;;4788500;29;20055;-84
2023/07/03 11:56:34;;;;;;;7.55;2.05;;;21.10;93.00;;;;;;4783128;29;20056;-85
2023/07/03 11:59:33;;;;;;;5.30;1.63;;;20.90;92.80;;;;;;4769567;30;20036;-83
2023/07/03 12:02:11;;;;;;;7.65;2.08;;;20.20;93.70;;;;;;4768939;30;20131;-83
2023/07/03 12:04:56;;;;;;;7.13;1.98;;;19.80;94.30;;;;;;4767817;30;20059;-83
2023/07/03 12:07:41;;;;;;;7.38;2.00;;;19.50;94.90;;;;;;4769394;30;20047;-83
2023/07/03 12:10:19;;;;;;;8.80;1.98;;;19.60;95.60;;;;;;4768672;30;20442;-82
2023/07/03 12:13:32;;;;;;;7.55;1.98;;;19.20;94.90;;;;;;4770716;30;20055;-82
2023/07/03 12:16:02;;;;;;;8.73;2.45;;;19.20;94.50;;;;;;4769848;30;20134;-82
2023/07/03 12:18:31;;;;;;;8.70;2.08;;;19.50;94.70;;;;;;4768717;30;20052;-82
2023/07/03 12:21:24;;;;;;;8.18;2.17;;;19.90;95.30;;;;;;4770189;30;20511;-82
2023/07/03 12:24:30;;;;;;;5.85;1.52;;;20.30;94.50;;;;;;4754663;30;20059;-82
2023/07/03 12:27:11;;;;;;;9.43;1.90;;;20.70;93.10;;;;;;4735673;30;20439;-83
2023/07/03 12:29:45;;;;;;;10.73;1.98;;;20.80;93.20;;;;;;4768866;30;20067;-82
2023/07/03 12:32:31;;;;;;;9.35;1.77;;;20.50;91.80;;;;;;4769417;30;20052;-83
2023/07/03 12:35:36;;;;;;;5.93;1.80;;;20.30;93.60;;;;;;4768411;30;20060;-82
2023/07/03 12:38:35;;;;;;;8.82;1.85;;;19.80;92.30;;;;;;4768216;30;20055;-82
2023/07/03 12:41:04;;;;;;;9.57;2.13;;;19.60;92.90;;;;;;4768215;30;20068;-83
2023/07/03 12:43:34;;;;;;;7.07;1.90;;;19.40;93.70;;;;;;4768727;30;20058;-83
2023/07/03 12:46:30;;;;;;;8.13;2.08;;;19.30;93.50;;;;;;4767998;30;20060;-83
2023/07/03 12:49:21;;;;;;;7.82;1.80;;;19.40;93.60;;;;;;4769503;30;20054;-83
2023/07/03 12:51:54;;;;;;;8.93;2.03;;;19.00;93.80;;;;;;4767889;30;20056;-83
2023/07/03 12:54:34;;;;;;;7.45;1.80;;;19.10;93.80;;;;;;4820476;24;20058;-82
2023/07/03 12:57:04;;;;;;;11.13;2.00;;;19.00;94.70;;;;;;4823380;29;20104;-83
2023/07/03 12:59:33;;;;;;;10.52;2.10;;;18.90;94.90;;;;;;4821892;29;20046;-83
2023/07/03 13:01:58;;;;;;;10.95;2.15;;;18.70;94.80;;;;;;4822167;29;20050;-83
2023/07/03 13:04:29;;;;;;;6.80;1.77;;;18.40;94.70;;;;;;4824162;29;20061;-82
2023/07/03 13:07:00;;;;;;;9.35;2.42;;;18.30;94.90;;;;;;4821381;29;20051;-83
2023/07/03 13:09:27;;;;;;;10.13;2.10;;;18.00;95.20;;;;;;4822435;29;20080;-82
2023/07/03 13:11:53;;;;;;;9.38;2.00;;;17.90;95.00;;;;;;4823541;29;20046;-83
2023/07/03 13:14:22;;;;;;;8.07;1.80;;;17.80;95.60;;;;;;4821776;29;20065;-82
2023/07/03 13:16:51;;;;;;;8.88;2.00;;;17.70;95.90;;;;;;4823660;29;20179;-82
2023/07/03 13:19:30;;;;;;;9.80;2.17;;;17.70;96.20;;;;;;4822003;29;20050;-82
2023/07/03 13:21:58;;;;;;;7.45;1.90;;;17.70;96.30;;;;;;4821671;29;20054;-82
2023/07/03 13:24:26;;;;;;;8.73;2.05;;;17.70;96.30;;;;;;4822919;29;20053;-81
2023/07/03 13:26:52;;;;;;;9.15;2.05;;;17.60;96.10;;;;;;4821295;29;20061;-82
2023/07/03 13:29:28;;;;;;;9.10;1.95;;;17.60;96.50;;;;;;4822184;29;20050;-84
2023/07/03 13:32:13;;;;;;;10.73;2.22;;;17.60;96.50;;;;;;4819259;29;20111;-84
2023/07/03 13:35:03;;;;;;;8.93;1.92;;;17.50;96.70;;;;;;4824539;29;20066;-84
2023/07/03 13:37:49;;;;;;;10.07;2.30;;;17.50;96.90;;;;;;4825461;29;20050;-84
2023/07/03 13:40:15;;;;;;;9.95;2.10;;;17.50;96.80;;;;;;4826682;29;20050;-83
2023/07/03 13:42:56;;;;;;;10.45;2.38;;;17.40;97.10;;;;;;4826587;29;20098;-83
2023/07/03 13:45:24;;;;;;;10.52;2.28;;;17.40;97.40;;;;;;4826867;29;20058;-83
2023/07/03 13:47:49;;;;;;;9.13;2.00;;;17.30;97.50;;;;;;4826121;29;20053;-83
2023/07/03 13:50:15;;;;;;;10.63;2.22;;;17.20;97.80;;;;;;4824300;29;20046;-83
2023/07/03 13:52:43;;;;;;;10.40;2.35;;;17.10;98.30;;;;;;4825322;29;20082;-83
2023/07/03 13:55:34;;;;;;;7.97;2.22;;;16.90;98.80;;;;;;4825460;29;20058;-83
2023/07/03 13:57:59;;;;;;;12.70;2.20;;;16.90;99.90;;;;;;4824772;29;20054;-84
2023/07/03 14:00:37;;;;;;;12.55;2.17;;;16.80;99.70;;;;;;4825971;29;20064;-84
2023/07/03 14:03:03;;;;;;;7.78;2.05;;;16.80;99.90;;;;;;4807503;29;20548;-85
2023/07/03 14:05:29;;;;;;;8.85;1.98;;;16.80;99.80;;;;;;4819670;29;20065;-83
2023/07/03 14:08:10;;;;;;;8.18;2.25;;;16.80;99.80;;;;;;4824607;29;20050;-84
2023/07/03 14:10:36;;;;;;;13.18;2.50;;;17.30;99.90;;;;;;4824132;29;20064;-84
2023/07/03 14:13:02;;;;;;;9.90;2.65;;;16.80;99.90;;;;;;4824648;29;20046;-83
2023/07/03 14:15:29;;;;;;;12.05;3.35;;;16.80;99.90;;;;;;4824651;29;20103;-83
2023/07/03 14:17:54;;;;;;;9.77;2.70;;;16.80;99.90;;;;;;4805853;29;20047;-83
2023/07/03 14:20:21;;;;;;;10.05;2.65;;;16.90;99.90;;;;;;4808246;29;20054;-83
2023/07/03 14:23:00;;;;;;;9.95;2.50;;;17.00;99.90;;;;;;4820558;29;20487;-84
2023/07/03 14:25:46;;;;;;;12.15;2.60;;;17.00;99.90;;;;;;4807726;29;20051;-83
2023/07/03 14:28:12;;;;;;;12.75;3.05;;;17.00;99.90;;;;;;4808478;29;20112;-84
2023/07/03 14:30:38;;;;;;;10.73;3.58;;;16.90;99.90;;;;;;4809835;29;20051;-84
2023/07/03 14:33:21;;;;;;;10.05;2.67;;;16.90;99.90;;;;;;4824966;29;20050;-83
2023/07/03 14:35:47;;;;;;;;;;;16.90;99.90;;;;;;4824490;29;20089;-84
2023/07/03 14:38:13;;;;;;;8.43;2.30;;;17.30;99.90;;;;;;4824053;29;20381;-83
2023/07/03 14:40:39;;;;;;;11.82;2.70;;;16.70;99.90;;;;;;4824591;29;20136;-82
2023/07/03 14:43:06;;;;;;;10.35;2.83;;;16.50;99.90;;;;;;4825520;29;20475;-83
2023/07/03 14:45:35;;;;;;;12.68;2.90;;;16.30;99.90;;;;;;4809775;29;20170;-83
2023/07/03 14:48:01;;;;;;;11.23;2.95;;;16.10;99.90;;;;;;4808120;29;20096;-82
2023/07/03 14:50:26;;;;;;;10.00;2.60;;;15.80;99.90;;;;;;4814024;29;20047;-81
2023/07/03 14:52:55;;;;;;;9.95;2.22;;;15.30;99.90;;;;;;4812924;29;20066;-81
2023/07/03 14:55:21;;;;;;;8.30;1.90;;;15.00;99.90;;;;;;4810832;29;20061;-80
2023/07/03 14:57:47;;;;;;;9.60;2.30;;;14.80;99.90;;;;;;4814180;29;20051;-80
2023/07/03 15:00:18;;;;;;;9.27;2.50;;;14.70;99.90;;;;;;4812512;29;20077;-80
2023/07/03 15:02:48;;;;;;;10.80;2.13;;;14.70;99.90;;;;;;4810986;29;20065;-80
2023/07/03 15:05:28;;;;;;;8.13;2.42;;;14.70;99.90;;;;;;4813892;29;20038;-81
2023/07/03 15:07:54;;;;;;;9.52;2.45;;;14.70;99.90;;;;;;4809806;29;20399;-80
2023/07/03 15:10:20;;;;;;;8.15;2.40;;;14.70;99.90;;;;;;4809979;29;20043;-80
2023/07/03 15:12:46;;;;;;;11.27;2.70;;;14.70;99.90;;;;;;4811099;29;20178;-80
2023/07/03 15:15:12;;;;;;;9.23;2.35;;;14.80;99.90;;;;;;4810619;29;20096;-79
2023/07/03 15:17:40;;;;;;;10.55;2.42;;;14.80;99.90;;;;;;4809760;29;20050;-79
2023/07/03 15:20:07;;;;;;;9.80;2.58;;;14.90;99.90;;;;;;4809155;29;20061;-79
2023/07/03 15:22:33;;;;;;;11.57;3.00;;;14.90;99.90;;;;;;4810173;29;20066;-80
2023/07/03 15:24:59;;;;;;;10.00;2.63;;;15.00;99.90;;;;;;4811747;29;20043;-79
2023/07/03 15:27:25;;;;;;;7.50;2.50;;;14.90;99.90;;;;;;4822876;29;20141;-80
2023/07/03 15:29:51;;;;;;;11.35;2.38;;;15.00;99.90;;;;;;4823813;29;20133;-80
2023/07/03 15:32:18;;;;;;;9.55;2.30;;;15.10;99.90;;;;;;4824354;29;20392;-80
2023/07/03 15:34:48;;;;;;;8.85;2.20;;;15.10;99.90;;;;;;4824104;29;20061;-80
2023/07/03 15:37:13;;;;;;;13.55;2.60;;;15.40;99.90;;;;;;4823166;29;20043;-80
2023/07/03 15:39:39;;;;;;;13.63;3.17;;;15.50;99.90;;;;;;4823443;29;20054;-81
2023/07/03 15:42:05;;;;;;;10.35;2.63;;;15.80;99.90;;;;;;4822012;29;20072;-81
2023/07/03 15:44:31;;;;;;;10.32;2.38;;;15.80;99.90;;;;;;4823502;29;20111;-79
2023/07/03 15:46:56;;;;;;;9.05;2.00;;;16.00;99.90;;;;;;4823818;29;20465;-80
2023/07/03 15:49:22;;;;;;;9.50;2.20;;;16.40;99.90;;;;;;4809514;29;20043;-80
2023/07/03 15:51:48;;;;;;;11.82;2.25;;;16.20;99.90;;;;;;4810472;29;20125;-80
2023/07/03 15:54:14;;;;;;;8.20;2.25;;;16.20;99.90;;;;;;4810762;29;20501;-79
2023/07/03 15:56:39;;;;;;;9.35;2.42;;;16.40;99.90;;;;;;4810237;29;20051;-80
2023/07/03 15:59:05;;;;;;;10.27;2.20;;;16.40;99.90;;;;;;4810071;29;20047;-80
2023/07/03 16:01:31;;;;;;;9.52;2.25;;;16.20;99.90;;;;;;4815035;29;20050;-80
2023/07/03 16:03:59;;;;;;;12.80;2.70;;;16.20;99.90;;;;;;4821325;29;20038;-79
2023/07/03 16:06:27;;;;;;;11.13;2.42;;;16.20;99.90;;;;;;4823764;29;20046;-79
2023/07/03 16:08:58;;;;;;;9.40;2.20;;;16.20;99.90;;;;;;4823172;29;20085;-79
2023/07/03 16:11:25;;;;;;;11.32;2.55;;;16.30;99.90;;;;;;4823180;29;20105;-79
2023/07/03 16:13:51;;;;;;;8.93;2.20;;;16.50;99.90;;;;;;4837391;29;20054;-80
2023/07/03 16:16:19;;;;;;;12.65;2.53;;;16.70;99.90;;;;;;4821948;29;20058;-79
2023/07/03 16:18:50;;;;;;;9.77;2.40;;;16.90;99.90;;;;;;4822438;29;20118;-80
2023/07/03 16:21:18;;;;;;;10.70;2.17;;;17.10;99.90;;;;;;4822817;29;20057;-79
2023/07/03 16:23:44;;;;;;;10.00;2.42;;;17.50;99.90;;;;;;4822787;29;20121;-80
2023/07/03 16:26:10;;;;;;;9.10;2.08;;;18.00;99.90;;;;;;4823204;29;20046;-80
2023/07/03 16:28:37;;;;;;;9.65;2.22;;;18.20;99.90;;;;;;4822116;29;20047;-80
2023/07/03 16:31:05;;;;;;;11.38;2.70;;;18.40;99.90;;;;;;4836564;29;20054;-80
2023/07/03 16:33:34;;;;;;;8.23;2.35;;;18.70;99.90;;;;;;4837401;29;20129;-80
2023/07/03 16:36:02;;;;;;;10.45;2.47;;;18.70;99.90;;;;;;4818812;29;20576;-79
2023/07/03 16:38:31;;;;;;;9.30;2.20;;;18.60;99.90;;;;;;4820026;29;20091;-78
2023/07/03 16:41:04;;;;;;;11.73;2.50;;;18.60;99.90;;;;;;4823139;29;20046;-78
2023/07/03 16:43:36;;;;;;;10.82;2.17;;;19.10;99.90;;;;;;4819363;29;20042;-80
2023/07/03 16:46:04;;;;;;;11.95;2.50;;;19.30;99.90;;;;;;4821340;29;20043;-80
2023/07/03 16:48:31;;;;;;;11.77;2.28;;;19.10;99.90;;;;;;4818161;29;20061;-80
2023/07/03 16:50:59;;;;;;;11.38;2.10;;;18.90;99.90;;;;;;4820965;29;20492;-79
2023/07/03 16:53:31;;;;;;;10.68;2.50;;;18.60;99.90;;;;;;4836645;29;20075;-79
2023/07/03 16:56:10;;;;;;;10.02;2.60;;;18.30;99.70;;;;;;4823207;29;20061;-79
2023/07/03 16:58:37;;;;;;;10.32;2.42;;;18.10;98.60;;;;;;4819658;29;20050;-80
2023/07/03 17:01:08;;;;;;;9.68;2.45;;;17.90;99.90;;;;;;4823217;29;20038;-80
2023/07/03 17:03:35;;;;;;;10.30;2.38;;;17.80;99.90;;;;;;4834843;29;20038;-80
2023/07/03 17:06:02;;;;;;;7.47;2.05;;;17.70;99.90;;;;;;4835876;29;20183;-79
2023/07/03 17:08:30;;;;;;;10.88;2.63;;;17.80;99.50;;;;;;4819033;29;20054;-80
2023/07/03 17:11:00;;;;;;;10.65;2.15;;;18.50;99.90;;;;;;4822555;29;20187;-80
2023/07/03 17:13:27;;;;;;;8.40;2.10;;;18.90;98.20;;;;;;4836480;29;20053;-80
2023/07/03 17:15:53;;;;;;;9.48;2.33;;;18.90;99.30;;;;;;4821880;29;20458;-80
2023/07/03 17:18:20;;;;;;;10.57;2.20;;;19.00;99.50;;;;;;4822625;29;20057;-80
2023/07/03 17:20:46;;;;;;;8.35;2.30;;;18.70;99.20;;;;;;4836167;29;20387;-79
2023/07/03 17:23:13;;;;;;;10.00;2.47;;;18.50;98.90;;;;;;4951086;24;20116;-79
2023/07/03 17:25:39;;;;;;;8.15;2.10;;;18.40;99.70;;;;;;4788423;29;20477;-79
2023/07/03 17:28:08;;;;;;;9.35;2.30;;;18.40;99.80;;;;;;4848434;24;20050;-80
2023/07/03 17:30:34;;;;;;;9.80;2.53;;;18.10;99.90;;;;;;4823107;24;20055;-80
2023/07/03 17:32:59;;;;;;;9.63;2.50;;;18.00;99.90;;;;;;4795891;29;20054;-80
2023/07/03 17:35:44;;;;;;;10.30;2.55;;;17.90;99.20;;;;;;4793287;29;20051;-79
2023/07/03 17:38:10;;;;;;;9.80;2.42;;;17.90;98.40;;;;;;4811500;29;20190;-80
2023/07/03 17:40:42;;;;;;;11.32;2.30;;;18.00;99.90;;;;;;4801970;29;20086;-80
2023/07/03 17:43:08;;;;;;;10.50;2.95;;;18.00;99.60;;;;;;4804169;29;20059;-80
2023/07/03 17:45:34;;;;;;;10.50;2.83;;;18.60;99.90;;;;;;4804924;29;20130;-80
2023/07/03 17:48:00;;;;;;;9.13;2.42;;;17.90;99.90;;;;;;4802401;29;20051;-81
2023/07/03 17:50:27;;;;;;;8.57;2.50;;;17.90;99.20;;;;;;4804917;29;20103;-81
2023/07/03 17:53:05;;;;;;;11.18;2.70;;;17.90;99.90;;;;;;4802906;29;20517;-81
2023/07/03 17:55:31;;;;;;;12.70;2.53;;;18.00;99.40;;;;;;4803013;29;20493;-81
2023/07/03 17:57:57;;;;;;;9.68;2.55;;;18.30;99.90;;;;;;4802912;29;20564;-81
2023/07/03 18:00:23;;;;;;;8.77;2.30;;;17.90;98.40;;;;;;4803398;29;20088;-80
2023/07/03 18:02:49;;;;;;;16.88;2.80;;;17.80;98.50;;;;;;4803951;29;20047;-81
2023/07/03 18:05:15;;;;;;;10.60;2.83;;;17.70;99.70;;;;;;4804002;29;20093;-81
2023/07/03 18:07:40;;;;;;;10.85;2.58;;;17.70;99.90;;;;;;4797444;29;20062;-81
2023/07/03 18:10:06;;;;;;;11.45;3.08;;;17.60;99.80;;;;;;4784429;29;20130;-80
2023/07/03 18:12:32;;;;;;;10.05;2.63;;;17.50;99.70;;;;;;4792829;29;20083;-82
2023/07/03 18:14:58;;;;;;;9.80;2.58;;;17.50;99.90;;;;;;4822219;29;20137;-81
2023/07/03 18:17:24;;;;;;;9.68;2.72;;;17.40;99.90;;;;;;4820919;29;20050;-81
2023/07/03 18:19:50;;;;;;;9.13;2.83;;;17.40;99.90;;;;;;4838602;29;20054;-81
2023/07/03 18:22:15;;;;;;;10.13;2.67;;;17.40;99.90;;;;;;4822508;29;20672;-81
2023/07/03 18:24:42;;;;;;;10.63;2.60;;;17.30;99.90;;;;;;4807940;29;20046;-80
2023/07/03 18:27:07;;;;;;;12.73;2.80;;;17.30;99.90;;;;;;4807815;29;20059;-80
2023/07/03 18:29:33;;;;;;;10.25;2.58;;;17.20;99.50;;;;;;4805901;29;20050;-79
2023/07/03 18:31:59;;;;;;;11.57;2.83;;;17.20;99.90;;;;;;4805769;29;20055;-80
2023/07/03 18:34:24;;;;;;;9.50;2.70;;;17.20;99.90;;;;;;4804357;29;20167;-80
2023/07/03 18:36:50;;;;;;;9.82;2.80;;;17.20;99.90;;;;;;4819791;29;20051;-81
2023/07/03 18:39:23;;;;;;;11.73;2.95;;;17.10;99.90;;;;;;4806947;29;20133;-81
2023/07/03 18:41:49;;;;;;;14.90;3.38;;;17.10;99.90;;;;;;4812339;24;20452;-82
2023/07/03 18:44:15;;;;;;;9.45;2.28;;;17.10;99.90;;;;;;4815831;29;20465;-82
2023/07/03 18:46:45;;;;;;;11.93;3.08;;;17.10;99.90;;;;;;4806413;29;20046;-81
2023/07/03 18:49:53;;;;;;;11.40;2.75;;;17.10;99.90;;;;;;4807259;29;20050;-81
2023/07/03 18:52:53;;;;;;;13.75;3.55;;;17.00;99.90;;;;;;4788894;29;20089;-81
2023/07/03 18:55:33;;;;;;;11.50;2.67;;;17.00;99.90;;;;;;4789263;29;20049;-81
2023/07/03 18:57:59;;;;;;;10.40;2.85;;;17.00;99.90;;;;;;4793268;29;20034;-80
2023/07/03 19:00:30;;;;;;;10.98;2.75;;;17.00;99.90;;;;;;4807482;29;20547;-81
2023/07/03 19:02:55;;;;;;;11.07;3.83;;;17.00;99.90;;;;;;4804952;29;20130;-81
2023/07/03 19:05:21;;;;;;;17.98;3.50;;;17.00;99.90;;;;;;4797760;29;20113;-81
2023/07/03 19:07:47;;;;;;;11.68;2.70;;;17.00;99.90;;;;;;4805881;29;20137;-81
2023/07/03 19:10:25;;;;;;;10.85;2.78;;;16.90;99.90;;;;;;4805392;29;20057;-81
2023/07/03 19:12:51;;;;;;;11.10;2.65;;;16.90;99.90;;;;;;4804942;29;20152;-81
2023/07/03 19:15:54;;;;;;;10.65;2.53;;;16.90;99.90;;;;;;4806039;29;20051;-82
2023/07/03 19:18:20;;;;;;;9.00;2.50;;;16.80;99.90;;;;;;4802558;29;20057;-80
2023/07/03 19:20:52;;;;;;;11.68;2.40;;;16.90;99.90;;;;;;4805184;29;20046;-80
2023/07/03 19:23:23;;;;;;;10.73;2.63;;;16.80;99.90;;;;;;4800448;29;20062;-80
2023/07/03 19:25:56;;;;;;;9.80;2.60;;;16.80;99.90;;;;;;4794870;29;20047;-80
2023/07/03 19:28:24;;;;;;;9.40;2.90;;;16.80;99.90;;;;;;4799440;29;20053;-80
2023/07/03 19:30:57;;;;;;;11.73;2.80;;;16.80;99.90;;;;;;4796470;29;20046;-79
2023/07/03 19:33:24;;;;;;;;;;;16.70;99.90;;;;;;4799167;29;20047;-80
2023/07/03 19:39:46;;;;;;;9.48;2.53;;;16.50;99.90;;;;;;4782043;29;20122;-80
2023/07/03 19:42:12;;;;;;;9.85;2.60;;;16.70;99.90;;;;;;4770042;30;20495;-80
2023/07/03 19:44:38;;;;;;;10.73;2.92;;;16.60;99.90;;;;;;4773993;29;20062;-80
2023/07/03 19:47:04;;;;;;;9.50;2.42;;;16.60;99.90;;;;;;4794970;29;20043;-80
2023/07/03 19:49:31;;;;;;;12.18;3.00;;;16.60;99.90;;;;;;4797676;29;20047;-80
2023/07/03 19:52:21;;;;;;;10.15;2.80;;;16.60;99.90;;;;;;4795068;29;20075;-80
2023/07/03 19:58:30;;;;;;;9.13;2.40;;;16.20;99.90;;;;;;4798701;29;20042;-83
2023/07/03 20:00:59;;;;;;;13.18;3.20;;;16.50;99.90;;;;;;4793834;29;20055;-81
2023/07/03 20:03:25;;;;;;;13.00;3.15;;;16.40;99.90;;;;;;4791054;29;20051;-80
2023/07/03 20:05:50;;;;;;;13.48;3.40;;;16.20;99.90;;;;;;4793928;29;20043;-80
2023/07/03 20:08:16;;;;;;;12.70;3.42;;;15.70;99.90;;;;;;4792167;29;20106;-80
2023/07/03 20:10:44;;;;;;;14.13;3.75;;;15.20;99.90;;;;;;4796196;29;20383;-80
2023/07/03 20:13:11;;;;;;;12.77;3.85;;;14.70;99.90;;;;;;4792863;29;20050;-79
2023/07/03 20:15:41;;;;;;;17.52;4.90;;;14.40;99.90;;;;;;4790831;29;20050;-79
2023/07/03 20:18:07;;;;;;;12.55;4.32;;;14.20;99.90;;;;;;4793230;29;20043;-79
2023/07/03 20:20:33;;;;;;;14.77;5.05;;;14.30;99.90;;;;;;4792698;29;20067;-79
2023/07/03 20:22:59;;;;;;;12.68;4.25;;;13.90;99.90;;;;;;4791826;29;20057;-79
2023/07/03 20:25:24;;;;;;;12.73;3.70;;;13.80;99.90;;;;;;4794012;29;20118;-79
2023/07/03 20:27:52;;;;;;;14.45;4.13;;;13.70;99.90;;;;;;4789842;29;20507;-79
2023/07/03 20:30:17;;;;;;;11.80;4.00;;;13.60;99.90;;;;;;4793568;29;20047;-79
2023/07/03 20:32:47;;;;;;;13.55;4.38;;;13.60;99.90;;;;;;4794023;29;20055;-79
2023/07/03 20:38:42;;;;;;;15.10;4.15;;;13.50;99.90;;;;;;4794574;29;20178;-78
2023/07/03 20:41:26;;;;;;;12.80;4.47;;;13.40;99.90;;;;;;4792678;29;20129;-81
2023/07/03 20:43:51;;;;;;;12.95;3.90;;;13.40;99.90;;;;;;4792089;29;20051;-82
2023/07/03 20:46:47;;;;;;;13.77;3.88;;;14.40;99.90;;;;;;4794001;29;20134;-83
2023/07/03 20:49:19;;;;;;;14.40;4.15;;;13.40;99.90;;;;;;4794407;29;20412;-81
2023/07/03 20:52:03;;;;;;;15.98;4.00;;;13.90;99.90;;;;;;4791922;29;20101;-82
2023/07/03 20:54:34;;;;;;;14.43;4.05;;;13.40;99.90;;;;;;4796132;29;20045;-82
2023/07/03 20:57:18;;;;;;;13.48;3.78;;;13.40;99.90;;;;;;4790921;29;20059;-82
2023/07/03 21:00:04;;;;;;;13.95;3.53;;;13.10;99.90;;;;;;4796104;29;20499;-82
2023/07/03 21:02:32;;;;;;;13.48;3.60;;;13.50;99.90;;;;;;4798587;29;20054;-82
2023/07/03 21:04:58;;;;;;;13.60;3.75;;;14.50;99.90;;;;;;4793820;29;20042;-82
2023/07/03 21:07:24;;;;;;;12.38;3.60;;;13.40;99.90;;;;;;4793587;29;20107;-82
2023/07/03 21:09:49;;;;;;;13.45;3.60;;;13.40;99.90;;;;;;4798612;29;20129;-82
2023/07/03 21:12:33;;;;;;;14.57;4.35;;;13.40;99.90;;;;;;4789042;29;20063;-81
2023/07/03 21:15:06;;;;;;;14.55;3.97;;;13.40;99.90;;;;;;4792310;29;20463;-81
2023/07/03 21:17:32;;;;;;;15.10;4.28;;;13.30;99.90;;;;;;4790103;29;20082;-82
2023/07/03 21:19:57;;;;;;;18.38;4.38;;;13.40;99.90;;;;;;4792524;29;20078;-82
2023/07/03 21:22:23;;;;;;;13.57;4.25;;;13.40;99.90;;;;;;4793115;29;20035;-82
2023/07/03 21:24:48;;;;;;;13.93;4.38;;;13.40;99.90;;;;;;4794015;29;20550;-82
2023/07/03 21:27:16;;;;;;;15.60;4.70;;;13.40;99.90;;;;;;4790646;29;20096;-82
2023/07/03 21:29:43;;;;;;;12.85;4.70;;;13.40;99.90;;;;;;4790805;29;20074;-82
2023/07/03 21:32:08;;;;;;;12.75;4.60;;;13.40;99.90;;;;;;4788220;29;20472;-83
2023/07/03 21:34:34;;;;;;;18.40;5.15;;;14.30;99.90;;;;;;4793106;29;20083;-82
2023/07/03 21:37:07;;;;;;;18.00;4.53;;;13.70;99.90;;;;;;4789668;29;20125;-82
2023/07/03 21:39:33;;;;;;;16.90;4.95;;;14.20;99.90;;;;;;4790501;29;20134;-82
2023/07/03 21:41:58;;;;;;;19.83;4.75;;;13.90;99.90;;;;;;4793865;29;20126;-83
2023/07/03 21:44:24;;;;;;;13.60;3.67;;;13.40;99.90;;;;;;4790384;29;20130;-84
2023/07/03 21:46:55;;;;;;;13.82;4.45;;;13.70;99.90;;;;;;4789119;29;20500;-84
2023/07/03 21:51:46;;;;;;;14.68;4.28;;;13.40;99.90;;;;;;4868411;24;20550;-83
2023/07/03 21:54:24;;;;;;;11.38;3.95;;;13.80;99.90;;;;;;4822622;29;20050;-83
2023/07/03 21:56:56;;;;;;;12.27;3.78;;;13.40;99.90;;;;;;4824358;29;20494;-83
2023/07/03 22:02:15;;;;;;;14.67;3.70;;;12.70;99.90;;;;;;4832703;24;20055;-83
2023/07/03 22:04:40;;;;;;;14.65;3.88;;;13.40;99.90;;;;;;4824916;29;20658;-83
2023/07/03 22:07:06;;;;;;;18.63;4.07;;;13.30;99.90;;;;;;4825578;29;20069;-82
2023/07/03 22:09:32;;;;;;;13.05;3.95;;;13.30;99.90;;;;;;4825648;29;20051;-82
2023/07/03 22:12:00;;;;;;;14.65;4.07;;;13.30;99.90;;;;;;4825593;29;20491;-83